sensor_id;sensor_type;location;lat;lon;timestamp;pressure;altitude;pressure_sealevel;temperature;humidity
14269;BME280;7218;51.480;7.006;2023-04-28T00:00:32;100325.00;;;10.14;64.91
14269;BME280;7218;51.480;7.006;2023-04-28T00:02:59;100335.59;;;10.02;62.19
14269;BME280;7218;51.480;7.006;2023-04-28T00:05:25;100320.91;;;10.00;62.17
14269;BME280;7218;51.480;7.006;2023-04-28T00:07:52;100318.94;;;10.12;64.76
14269;BME280;7218;51.480;7.006;2023-04-28T00:10:19;100317.34;;;10.05;64.11
14269;BME280;7218;51.480;7.006;2023-04-28T00:12:46;100312.06;;;10.10;65.23
14269;BME280;7218;51.480;7.006;2023-04-28T00:15:13;100314.81;;;9.99;66.04
14269;BME280;7218;51.480;7.006;2023-04-28T00:17:40;100301.03;;;9.94;64.45
14269;BME280;7218;51.480;7.006;2023-04-28T00:20:08;100298.34;;;9.99;68.36
14269;BME280;7218;51.480;7.006;2023-04-28T00:22:35;100295.81;;;9.94;71.48
14269;BME280;7218;51.480;7.006;2023-04-28T00:25:01;100293.22;;;9.92;68.61
14269;BME280;7218;51.480;7.006;2023-04-28T00:27:28;100287.13;;;9.95;71.02
14269;BME280;7218;51.480;7.006;2023-04-28T00:29:56;100288.69;;;10.05;71.45
14269;BME280;7218;51.480;7.006;2023-04-28T00:32:23;100284.50;;;9.95;75.08
14269;BME280;7218;51.480;7.006;2023-04-28T00:34:49;100280.13;;;9.97;73.57
14269;BME280;7218;51.480;7.006;2023-04-28T00:37:17;100279.25;;;9.98;78.72
14269;BME280;7218;51.480;7.006;2023-04-28T00:39:44;100270.72;;;9.90;83.85
14269;BME280;7218;51.480;7.006;2023-04-28T00:42:11;100267.34;;;9.83;81.67
14269;BME280;7218;51.480;7.006;2023-04-28T00:44:37;100266.56;;;9.78;83.43
14269;BME280;7218;51.480;7.006;2023-04-28T00:47:07;100265.59;;;9.82;86.08
14269;BME280;7218;51.480;7.006;2023-04-28T00:49:34;100262.34;;;9.71;88.91
14269;BME280;7218;51.480;7.006;2023-04-28T00:52:04;100257.88;;;9.78;86.60
14269;BME280;7218;51.480;7.006;2023-04-28T00:54:31;100254.72;;;9.58;81.52
14269;BME280;7218;51.480;7.006;2023-04-28T00:56:58;100260.06;;;9.50;84.32
14269;BME280;7218;51.480;7.006;2023-04-28T00:59:24;100253.13;;;9.50;88.66
14269;BME280;7218;51.480;7.006;2023-04-28T01:01:50;100254.00;;;9.51;82.31
14269;BME280;7218;51.480;7.006;2023-04-28T01:04:19;100252.81;;;9.69;86.69
14269;BME280;7218;51.480;7.006;2023-04-28T01:06:46;100245.09;;;9.64;87.42
14269;BME280;7218;51.480;7.006;2023-04-28T01:09:12;100249.59;;;9.53;87.12
14269;BME280;7218;51.480;7.006;2023-04-28T01:11:39;100250.41;;;9.57;90.95
14269;BME280;7218;51.480;7.006;2023-04-28T01:14:05;100244.31;;;9.58;94.67
14269;BME280;7218;51.480;7.006;2023-04-28T01:16:32;100246.88;;;9.61;91.27
14269;BME280;7218;51.480;7.006;2023-04-28T01:18:59;100249.59;;;9.55;97.69
14269;BME280;7218;51.480;7.006;2023-04-28T01:21:28;100247.00;;;9.53;95.04
14269;BME280;7218;51.480;7.006;2023-04-28T01:23:58;100246.19;;;9.51;96.42
14269;BME280;7218;51.480;7.006;2023-04-28T01:26:25;100242.09;;;9.35;96.97
14269;BME280;7218;51.480;7.006;2023-04-28T01:28:51;100234.50;;;9.21;98.29
14269;BME280;7218;51.480;7.006;2023-04-28T01:31:18;100236.97;;;9.27;100.00
14269;BME280;7218;51.480;7.006;2023-04-28T01:33:44;100234.56;;;9.14;100.00
14269;BME280;7218;51.480;7.006;2023-04-28T01:36:11;100234.50;;;9.18;100.00
14269;BME280;7218;51.480;7.006;2023-04-28T01:38:37;100233.63;;;9.21;100.00
14269;BME280;7218;51.480;7.006;2023-04-28T01:41:05;100236.16;;;9.25;100.00
14269;BME280;7218;51.480;7.006;2023-04-28T01:43:32;100224.19;;;9.12;100.00
14269;BME280;7218;51.480;7.006;2023-04-28T01:45:58;100226.91;;;9.04;100.00
14269;BME280;7218;51.480;7.006;2023-04-28T01:48:24;100227.91;;;8.96;100.00
14269;BME280;7218;51.480;7.006;2023-04-28T01:50:51;100232.25;;;8.94;100.00
14269;BME280;7218;51.480;7.006;2023-04-28T01:53:17;100236.53;;;8.98;100.00
14269;BME280;7218;51.480;7.006;2023-04-28T01:55:44;100236.50;;;9.01;100.00
14269;BME280;7218;51.480;7.006;2023-04-28T01:58:12;100244.19;;;9.08;100.00
14269;BME280;7218;51.480;7.006;2023-04-28T02:00:39;100233.97;;;8.95;100.00
14269;BME280;7218;51.480;7.006;2023-04-28T02:03:05;100228.84;;;8.90;100.00
14269;BME280;7218;51.480;7.006;2023-04-28T02:05:32;100228.78;;;8.93;100.00
14269;BME280;7218;51.480;7.006;2023-04-28T02:07:58;100225.31;;;8.94;100.00
14269;BME280;7218;51.480;7.006;2023-04-28T02:10:25;100222.78;;;8.88;100.00
14269;BME280;7218;51.480;7.006;2023-04-28T02:12:51;100208.06;;;8.87;100.00
14269;BME280;7218;51.480;7.006;2023-04-28T02:15:19;100213.03;;;9.04;100.00
14269;BME280;7218;51.480;7.006;2023-04-28T02:17:46;100201.00;;;8.97;100.00
14269;BME280;7218;51.480;7.006;2023-04-28T02:20:13;100205.28;;;9.01;100.00
14269;BME280;7218;51.480;7.006;2023-04-28T02:22:39;100197.53;;;8.98;100.00
14269;BME280;7218;51.480;7.006;2023-04-28T02:25:07;100197.44;;;9.05;100.00
14269;BME280;7218;51.480;7.006;2023-04-28T02:27:34;100195.75;;;9.01;100.00
14269;BME280;7218;51.480;7.006;2023-04-28T02:30:01;100190.66;;;8.92;100.00
14269;BME280;7218;51.480;7.006;2023-04-28T02:32:28;100195.78;;;8.98;100.00
14269;BME280;7218;51.480;7.006;2023-04-28T02:34:55;100192.53;;;8.84;100.00
14269;BME280;7218;51.480;7.006;2023-04-28T02:37:22;100191.72;;;8.78;100.00
14269;BME280;7218;51.480;7.006;2023-04-28T02:39:49;100191.72;;;8.79;100.00
14269;BME280;7218;51.480;7.006;2023-04-28T02:42:15;100192.59;;;8.80;100.00
14269;BME280;7218;51.480;7.006;2023-04-28T02:44:42;100203.00;;;8.78;100.00
14269;BME280;7218;51.480;7.006;2023-04-28T02:47:08;100197.84;;;8.75;100.00
14269;BME280;7218;51.480;7.006;2023-04-28T02:49:36;100195.09;;;8.86;100.00
14269;BME280;7218;51.480;7.006;2023-04-28T02:52:03;100194.38;;;8.76;100.00
14269;BME280;7218;51.480;7.006;2023-04-28T02:54:29;100193.53;;;8.74;100.00
14269;BME280;7218;51.480;7.006;2023-04-28T02:56:58;100190.06;;;8.72;100.00
14269;BME280;7218;51.480;7.006;2023-04-28T02:59:25;100182.25;;;8.75;100.00
14269;BME280;7218;51.480;7.006;2023-04-28T03:01:52;100180.53;;;8.74;100.00
14269;BME280;7218;51.480;7.006;2023-04-28T03:04:18;100176.13;;;8.78;100.00
14269;BME280;7218;51.480;7.006;2023-04-28T03:06:46;100171.63;;;8.90;100.00
14269;BME280;7218;51.480;7.006;2023-04-28T03:09:13;100171.78;;;8.81;100.00
14269;BME280;7218;51.480;7.006;2023-04-28T03:11:40;100162.31;;;8.76;100.00
14269;BME280;7218;51.480;7.006;2023-04-28T03:14:06;100170.13;;;8.73;100.00
14269;BME280;7218;51.480;7.006;2023-04-28T03:16:32;100168.47;;;8.69;100.00
14269;BME280;7218;51.480;7.006;2023-04-28T03:18:59;100165.78;;;8.75;100.00
14269;BME280;7218;51.480;7.006;2023-04-28T03:21:25;100163.34;;;8.64;100.00
14269;BME280;7218;51.480;7.006;2023-04-28T03:23:54;100160.59;;;8.76;100.00
14269;BME280;7218;51.480;7.006;2023-04-28T03:26:21;100158.00;;;8.73;100.00
14269;BME280;7218;51.480;7.006;2023-04-28T03:28:47;100158.00;;;8.75;100.00
14269;BME280;7218;51.480;7.006;2023-04-28T03:31:14;100154.47;;;8.77;100.00
14269;BME280;7218;51.480;7.006;2023-04-28T03:33:40;100154.47;;;8.79;100.00
14269;BME280;7218;51.480;7.006;2023-04-28T03:36:09;100145.78;;;8.80;100.00
14269;BME280;7218;51.480;7.006;2023-04-28T03:38:36;100145.78;;;8.80;100.00
14269;BME280;7218;51.480;7.006;2023-04-28T03:41:03;100140.38;;;8.95;100.00
14269;BME280;7218;51.480;7.006;2023-04-28T03:43:33;100136.78;;;9.02;100.00
14269;BME280;7218;51.480;7.006;2023-04-28T03:46:01;100127.44;;;8.89;100.00
14269;BME280;7218;51.480;7.006;2023-04-28T03:48:28;100136.97;;;8.88;100.00
14269;BME280;7218;51.480;7.006;2023-04-28T03:50:54;100119.59;;;8.92;100.00
14269;BME280;7218;51.480;7.006;2023-04-28T03:53:21;100111.69;;;8.99;100.00
14269;BME280;7218;51.480;7.006;2023-04-28T03:55:47;100111.69;;;8.98;100.00
14269;BME280;7218;51.480;7.006;2023-04-28T03:58:15;100108.13;;;9.05;100.00
14269;BME280;7218;51.480;7.006;2023-04-28T04:00:42;100108.28;;;8.96;100.00
14269;BME280;7218;51.480;7.006;2023-04-28T04:03:08;100097.84;;;8.97;100.00
14269;BME280;7218;51.480;7.006;2023-04-28T04:05:35;100094.25;;;9.06;100.00
14269;BME280;7218;51.480;7.006;2023-04-28T04:08:01;100085.47;;;9.12;100.00
14269;BME280;7218;51.480;7.006;2023-04-28T04:10:28;100083.78;;;9.09;100.00
14269;BME280;7218;51.480;7.006;2023-04-28T04:12:54;100084.66;;;9.10;100.00
14269;BME280;7218;51.480;7.006;2023-04-28T04:15:22;100086.03;;;9.30;100.00
14269;BME280;7218;51.480;7.006;2023-04-28T04:17:49;100082.72;;;9.21;100.00
14269;BME280;7218;51.480;7.006;2023-04-28T04:20:16;100077.47;;;9.24;100.00
14269;BME280;7218;51.480;7.006;2023-04-28T04:22:42;100075.72;;;9.24;100.00
14269;BME280;7218;51.480;7.006;2023-04-28T04:25:09;100071.22;;;9.32;100.00
14269;BME280;7218;51.480;7.006;2023-04-28T04:27:35;100075.47;;;9.38;100.00
14269;BME280;7218;51.480;7.006;2023-04-28T04:30:02;100084.06;;;9.41;100.00
14269;BME280;7218;51.480;7.006;2023-04-28T04:32:30;100090.72;;;9.59;100.00
14269;BME280;7218;51.480;7.006;2023-04-28T04:34:56;100095.13;;;9.54;100.00
14269;BME280;7218;51.480;7.006;2023-04-28T04:37:23;100095.13;;;9.56;100.00
14269;BME280;7218;51.480;7.006;2023-04-28T04:39:50;100094.03;;;9.67;100.00
14269;BME280;7218;51.480;7.006;2023-04-28T04:42:17;100092.31;;;9.66;100.00
14269;BME280;7218;51.480;7.006;2023-04-28T04:44:43;100101.69;;;9.75;100.00
14269;BME280;7218;51.480;7.006;2023-04-28T04:47:09;100093.81;;;9.78;100.00
14269;BME280;7218;51.480;7.006;2023-04-28T04:49:37;100089.28;;;9.89;100.00
14269;BME280;7218;51.480;7.006;2023-04-28T04:52:04;100084.19;;;9.83;100.00
14269;BME280;7218;51.480;7.006;2023-04-28T04:54:31;100085.06;;;9.82;100.00
14269;BME280;7218;51.480;7.006;2023-04-28T04:56:57;100082.34;;;9.88;100.00
14269;BME280;7218;51.480;7.006;2023-04-28T04:59:24;100078.94;;;9.86;100.00
14269;BME280;7218;51.480;7.006;2023-04-28T05:01:50;100085.00;;;9.85;100.00
14269;BME280;7218;51.480;7.006;2023-04-28T05:04:17;100077.09;;;9.91;100.00
14269;BME280;7218;51.480;7.006;2023-04-28T05:06:45;100066.69;;;9.89;100.00
14269;BME280;7218;51.480;7.006;2023-04-28T05:09:11;100078.22;;;9.76;100.00
14269;BME280;7218;51.480;7.006;2023-04-28T05:11:37;100073.81;;;9.80;100.00
14269;BME280;7218;51.480;7.006;2023-04-28T05:14:04;100073.00;;;9.76;100.00
14269;BME280;7218;51.480;7.006;2023-04-28T05:16:30;100073.06;;;9.75;100.00
14269;BME280;7218;51.480;7.006;2023-04-28T05:18:57;100069.63;;;9.73;100.00
14269;BME280;7218;51.480;7.006;2023-04-28T05:21:24;100069.56;;;9.76;100.00
14269;BME280;7218;51.480;7.006;2023-04-28T05:23:52;100065.00;;;9.87;100.00
14269;BME280;7218;51.480;7.006;2023-04-28T05:26:18;100061.56;;;9.85;100.00
14269;BME280;7218;51.480;7.006;2023-04-28T05:28:45;100064.06;;;9.91;100.00
14269;BME280;7218;51.480;7.006;2023-04-28T05:31:12;100065.00;;;9.87;100.00
14269;BME280;7218;51.480;7.006;2023-04-28T05:33:38;100063.31;;;9.86;100.00
14269;BME280;7218;51.480;7.006;2023-04-28T05:36:05;100063.31;;;9.86;100.00
14269;BME280;7218;51.480;7.006;2023-04-28T05:38:32;100055.50;;;9.84;100.00
14269;BME280;7218;51.480;7.006;2023-04-28T05:41:00;100048.91;;;9.67;100.00
14269;BME280;7218;51.480;7.006;2023-04-28T05:43:27;100040.09;;;9.74;100.00
14269;BME280;7218;51.480;7.006;2023-04-28T05:45:53;100036.41;;;9.84;100.00
14269;BME280;7218;51.480;7.006;2023-04-28T05:48:20;100025.03;;;9.89;100.00
14269;BME280;7218;51.480;7.006;2023-04-28T05:50:46;100023.28;;;9.88;100.00
14269;BME280;7218;51.480;7.006;2023-04-28T05:53:13;100023.28;;;9.90;100.00
14269;BME280;7218;51.480;7.006;2023-04-28T05:55:39;100022.13;;;10.03;100.00
14269;BME280;7218;51.480;7.006;2023-04-28T05:58:07;100031.34;;;10.21;100.00
14269;BME280;7218;51.480;7.006;2023-04-28T06:00:34;100024.47;;;10.15;100.00
14269;BME280;7218;51.480;7.006;2023-04-28T06:03:00;100026.22;;;10.15;100.00
14269;BME280;7218;51.480;7.006;2023-04-28T06:05:27;100024.44;;;10.17;100.00
14269;BME280;7218;51.480;7.006;2023-04-28T06:07:53;100029.50;;;10.24;100.00
14269;BME280;7218;51.480;7.006;2023-04-28T06:10:21;100035.41;;;10.32;100.00
14269;BME280;7218;51.480;7.006;2023-04-28T06:12:47;100041.56;;;10.30;100.00
14269;BME280;7218;51.480;7.006;2023-04-28T06:15:15;100040.28;;;10.48;100.00
14269;BME280;7218;51.480;7.006;2023-04-28T06:17:41;100038.72;;;10.41;100.00
14269;BME280;7218;51.480;7.006;2023-04-28T06:20:09;100039.34;;;10.50;100.00
14269;BME280;7218;51.480;7.006;2023-04-28T06:22:37;100028.75;;;10.58;100.00
14269;BME280;7218;51.480;7.006;2023-04-28T06:25:05;100026.50;;;10.79;100.00
14269;BME280;7218;51.480;7.006;2023-04-28T06:27:31;100015.78;;;10.90;100.00
14269;BME280;7218;51.480;7.006;2023-04-28T06:29:58;100015.56;;;10.99;100.00
14269;BME280;7218;51.480;7.006;2023-04-28T06:32:26;100017.31;;;11.31;100.00
14269;BME280;7218;51.480;7.006;2023-04-28T06:34:52;100014.44;;;11.42;100.00
14269;BME280;7218;51.480;7.006;2023-04-28T06:37:19;100009.75;;;11.54;100.00
14269;BME280;7218;51.480;7.006;2023-04-28T06:39:45;100020.69;;;11.67;100.00
14269;BME280;7218;51.480;7.006;2023-04-28T06:42:12;100018.78;;;11.75;100.00
14269;BME280;7218;51.480;7.006;2023-04-28T06:44:42;100014.28;;;11.80;100.00
14269;BME280;7218;51.480;7.006;2023-04-28T06:47:09;100011.38;;;11.89;100.00
14269;BME280;7218;51.480;7.006;2023-04-28T06:49:37;100022.28;;;12.03;100.00
14269;BME280;7218;51.480;7.006;2023-04-28T06:52:03;100015.66;;;11.92;100.00
14269;BME280;7218;51.480;7.006;2023-04-28T06:54:32;100005.31;;;11.89;100.00
14269;BME280;7218;51.480;7.006;2023-04-28T06:56:58;100007.06;;;11.88;100.00
14269;BME280;7218;51.480;7.006;2023-04-28T06:59:25;99993.53;;;11.74;100.00
14269;BME280;7218;51.480;7.006;2023-04-28T07:01:51;99995.84;;;11.85;100.00
14269;BME280;7218;51.480;7.006;2023-04-28T07:04:18;99990.97;;;11.71;100.00
14269;BME280;7218;51.480;7.006;2023-04-28T07:06:45;99987.84;;;11.58;100.00
14269;BME280;7218;51.480;7.006;2023-04-28T07:09:12;99983.25;;;11.66;100.00
14269;BME280;7218;51.480;7.006;2023-04-28T07:11:40;99987.94;;;11.86;100.00
14269;BME280;7218;51.480;7.006;2023-04-28T07:14:06;99985.84;;;11.99;100.00
14269;BME280;7218;51.480;7.006;2023-04-28T07:16:33;99989.47;;;12.23;100.00
14269;BME280;7218;51.480;7.006;2023-04-28T07:19:00;99992.88;;;12.52;100.00
14269;BME280;7218;51.480;7.006;2023-04-28T07:21:26;99982.78;;;12.68;100.00
14269;BME280;7218;51.480;7.006;2023-04-28T07:23:54;99988.72;;;13.00;100.00
14269;BME280;7218;51.480;7.006;2023-04-28T07:26:21;99987.63;;;13.05;100.00
14269;BME280;7218;51.480;7.006;2023-04-28T07:28:48;99987.38;;;13.14;100.00
14269;BME280;7218;51.480;7.006;2023-04-28T07:31:14;100002.50;;;13.05;100.00
14269;BME280;7218;51.480;7.006;2023-04-28T07:33:41;99992.63;;;12.86;100.00
14269;BME280;7218;51.480;7.006;2023-04-28T07:36:08;99986.38;;;12.90;100.00
14269;BME280;7218;51.480;7.006;2023-04-28T07:38:34;99991.75;;;13.14;100.00
14269;BME280;7218;51.480;7.006;2023-04-28T07:41:03;100002.06;;;13.43;100.00
14269;BME280;7218;51.480;7.006;2023-04-28T07:43:29;100015.63;;;13.03;100.00
14269;BME280;7218;51.480;7.006;2023-04-28T07:45:56;100011.41;;;12.99;100.00
14269;BME280;7218;51.480;7.006;2023-04-28T07:48:23;100003.94;;;13.15;100.00
14269;BME280;7218;51.480;7.006;2023-04-28T07:50:51;100004.88;;;13.37;100.00
14269;BME280;7218;51.480;7.006;2023-04-28T07:53:17;100017.06;;;13.13;100.00
14269;BME280;7218;51.480;7.006;2023-04-28T07:55:44;100014.28;;;12.91;100.00
14269;BME280;7218;51.480;7.006;2023-04-28T07:58:12;100005.78;;;12.85;100.00
14269;BME280;7218;51.480;7.006;2023-04-28T08:00:39;100003.22;;;12.83;100.00
14269;BME280;7218;51.480;7.006;2023-04-28T08:03:05;100006.03;;;13.04;100.00
14269;BME280;7218;51.480;7.006;2023-04-28T08:05:32;100006.28;;;13.22;100.00
14269;BME280;7218;51.480;7.006;2023-04-28T08:07:58;100005.00;;;13.34;100.00
14269;BME280;7218;51.480;7.006;2023-04-28T08:10:25;100009.97;;;13.17;100.00
14269;BME280;7218;51.480;7.006;2023-04-28T08:12:51;100005.13;;;13.05;100.00
14269;BME280;7218;51.480;7.006;2023-04-28T08:15:19;100005.34;;;13.25;100.00
14269;BME280;7218;51.480;7.006;2023-04-28T08:17:46;99993.88;;;13.27;100.00
14269;BME280;7218;51.480;7.006;2023-04-28T08:20:12;99997.94;;;13.36;100.00
14269;BME280;7218;51.480;7.006;2023-04-28T08:22:39;100006.44;;;13.18;100.00
14269;BME280;7218;51.480;7.006;2023-04-28T08:25:06;99995.44;;;13.33;100.00
14269;BME280;7218;51.480;7.006;2023-04-28T08:27:33;99995.91;;;12.93;100.00
14269;BME280;7218;51.480;7.006;2023-04-28T08:30:02;100001.16;;;13.44;100.00
14269;BME280;7218;51.480;7.006;2023-04-28T08:32:30;99993.81;;;13.54;100.00
14269;BME280;7218;51.480;7.006;2023-04-28T08:34:57;99994.59;;;13.56;100.00
14269;BME280;7218;51.480;7.006;2023-04-28T08:37:25;99979.19;;;13.71;100.00
14269;BME280;7218;51.480;7.006;2023-04-28T08:39:52;99989.09;;;13.87;100.00
14269;BME280;7218;51.480;7.006;2023-04-28T08:42:28;99983.09;;;13.85;100.00
14269;BME280;7218;51.480;7.006;2023-04-28T08:44:55;99977.75;;;13.86;100.00
14269;BME280;7218;51.480;7.006;2023-04-28T08:47:28;99986.97;;;13.96;100.00
14269;BME280;7218;51.480;7.006;2023-04-28T08:50:02;99977.59;;;14.14;99.88
14269;BME280;7218;51.480;7.006;2023-04-28T08:52:29;99978.34;;;13.94;99.89
14269;BME280;7218;51.480;7.006;2023-04-28T08:54:57;99985.34;;;13.94;100.00
14269;BME280;7218;51.480;7.006;2023-04-28T08:57:25;99973.41;;;14.08;100.00
14269;BME280;7218;51.480;7.006;2023-04-28T08:59:52;99975.31;;;13.58;100.00
14269;BME280;7218;51.480;7.006;2023-04-28T09:02:19;99978.66;;;13.62;100.00
14269;BME280;7218;51.480;7.006;2023-04-28T09:04:46;99978.16;;;13.75;100.00
14269;BME280;7218;51.480;7.006;2023-04-28T09:07:14;99978.03;;;14.02;100.00
14269;BME280;7218;51.480;7.006;2023-04-28T09:09:40;99984.94;;;14.04;100.00
14269;BME280;7218;51.480;7.006;2023-04-28T09:12:07;99980.69;;;14.23;100.00
14269;BME280;7218;51.480;7.006;2023-04-28T09:14:34;99978.75;;;13.84;100.00
14269;BME280;7218;51.480;7.006;2023-04-28T09:17:02;99979.53;;;13.86;100.00
14269;BME280;7218;51.480;7.006;2023-04-28T09:19:35;99982.72;;;13.70;100.00
14269;BME280;7218;51.480;7.006;2023-04-28T09:22:02;99975.97;;;14.10;100.00
14269;BME280;7218;51.480;7.006;2023-04-28T09:24:32;99975.66;;;13.96;100.00
14269;BME280;7218;51.480;7.006;2023-04-28T09:27:00;99982.97;;;13.64;100.00
14269;BME280;7218;51.480;7.006;2023-04-28T09:29:27;99987.25;;;13.42;100.00
14269;BME280;7218;51.480;7.006;2023-04-28T09:32:11;99976.91;;;13.86;100.00
14269;BME280;7218;51.480;7.006;2023-04-28T09:34:41;99974.28;;;14.09;100.00
14269;BME280;7218;51.480;7.006;2023-04-28T09:37:13;99977.59;;;14.14;100.00
14269;BME280;7218;51.480;7.006;2023-04-28T09:39:42;99981.66;;;13.99;100.00
14269;BME280;7218;51.480;7.006;2023-04-28T09:42:09;99983.09;;;14.06;100.00
14269;BME280;7218;51.480;7.006;2023-04-28T09:44:35;99979.25;;;13.93;100.00
14269;BME280;7218;51.480;7.006;2023-04-28T09:47:18;99974.81;;;14.17;100.00
14269;BME280;7218;51.480;7.006;2023-04-28T09:49:52;99971.50;;;14.57;100.00
14269;BME280;7218;51.480;7.006;2023-04-28T09:52:20;99976.22;;;14.49;100.00
14269;BME280;7218;51.480;7.006;2023-04-28T09:54:49;99959.06;;;15.04;100.00
14269;BME280;7218;51.480;7.006;2023-04-28T09:57:17;99957.69;;;15.34;100.00
14269;BME280;7218;51.480;7.006;2023-04-28T09:59:46;99957.31;;;15.64;99.51
14269;BME280;7218;51.480;7.006;2023-04-28T10:02:13;99968.25;;;15.14;100.00
14269;BME280;7218;51.480;7.006;2023-04-28T10:04:41;99968.16;;;14.95;100.00
14269;BME280;7218;51.480;7.006;2023-04-28T10:07:08;99976.66;;;14.38;100.00
14269;BME280;7218;51.480;7.006;2023-04-28T10:09:36;99967.78;;;14.41;100.00
14269;BME280;7218;51.480;7.006;2023-04-28T10:12:05;99970.69;;;14.33;100.00
14269;BME280;7218;51.480;7.006;2023-04-28T10:14:33;99968.53;;;13.99;100.00
14269;BME280;7218;51.480;7.006;2023-04-28T10:17:03;99956.91;;;14.28;100.00
14269;BME280;7218;51.480;7.006;2023-04-28T10:19:30;99950.88;;;14.90;100.00
14269;BME280;7218;51.480;7.006;2023-04-28T10:22:06;99951.94;;;15.06;100.00
14269;BME280;7218;51.480;7.006;2023-04-28T10:24:48;99954.34;;;14.90;100.00
14269;BME280;7218;51.480;7.006;2023-04-28T10:27:18;99959.53;;;14.28;100.00
14269;BME280;7218;51.480;7.006;2023-04-28T10:29:46;99954.28;;;14.28;100.00
14269;BME280;7218;51.480;7.006;2023-04-28T10:32:22;99953.81;;;14.62;100.00
14269;BME280;7218;51.480;7.006;2023-04-28T10:34:50;99947.84;;;14.58;100.00
14269;BME280;7218;51.480;7.006;2023-04-28T10:37:17;99958.34;;;14.37;100.00
14269;BME280;7218;51.480;7.006;2023-04-28T10:40:32;99958.28;;;14.15;100.00
14269;BME280;7218;51.480;7.006;2023-04-28T10:43:02;99955.78;;;14.12;100.00
14269;BME280;7218;51.480;7.006;2023-04-28T10:46:03;99957.28;;;14.62;100.00
14269;BME280;7218;51.480;7.006;2023-04-28T10:49:04;99954.44;;;14.02;100.00
14269;BME280;7218;51.480;7.006;2023-04-28T10:51:32;99959.81;;;13.99;100.00
14269;BME280;7218;51.480;7.006;2023-04-28T10:54:17;99966.69;;;13.79;100.00
14269;BME280;7218;51.480;7.006;2023-04-28T10:57:18;99965.69;;;13.82;100.00
14269;BME280;7218;51.480;7.006;2023-04-28T10:59:47;99956.75;;;13.64;100.00
14269;BME280;7218;51.480;7.006;2023-04-28T11:02:37;99958.41;;;13.67;100.00
14269;BME280;7218;51.480;7.006;2023-04-28T11:05:17;99962.16;;;13.35;100.00
14269;BME280;7218;51.480;7.006;2023-04-28T11:11:20;99946.97;;;13.91;100.00
14269;BME280;7218;51.480;7.006;2023-04-28T11:13:47;99958.88;;;14.00;100.00
14269;BME280;7218;51.480;7.006;2023-04-28T11:16:18;99952.25;;;13.68;100.00
14269;BME280;7218;51.480;7.006;2023-04-28T11:18:53;99951.44;;;13.43;100.00
14269;BME280;7218;51.480;7.006;2023-04-28T11:21:21;99951.00;;;13.55;100.00
14269;BME280;7218;51.480;7.006;2023-04-28T11:23:48;99946.84;;;13.72;100.00
14269;BME280;7218;51.480;7.006;2023-04-28T11:26:14;99950.41;;;13.70;100.00
14269;BME280;7218;51.480;7.006;2023-04-28T11:28:49;99952.97;;;14.40;100.00
14269;BME280;7218;51.480;7.006;2023-04-28T11:31:18;99955.25;;;14.49;100.00
14269;BME280;7218;51.480;7.006;2023-04-28T11:33:48;99947.69;;;14.18;100.00
14269;BME280;7218;51.480;7.006;2023-04-28T11:36:25;99948.63;;;14.60;100.00
14269;BME280;7218;51.480;7.006;2023-04-28T11:38:53;99951.63;;;13.85;100.00
14269;BME280;7218;51.480;7.006;2023-04-28T11:41:20;99958.19;;;13.95;100.00
14269;BME280;7218;51.480;7.006;2023-04-28T11:43:47;99951.72;;;13.82;100.00
14269;BME280;7218;51.480;7.006;2023-04-28T11:46:19;99959.69;;;14.47;100.00
14269;BME280;7218;51.480;7.006;2023-04-28T11:48:46;99955.66;;;14.80;100.00
14269;BME280;7218;51.480;7.006;2023-04-28T11:51:34;99955.16;;;14.50;100.00
14269;BME280;7218;51.480;7.006;2023-04-28T11:54:01;99956.00;;;14.29;100.00
14269;BME280;7218;51.480;7.006;2023-04-28T11:56:28;99963.16;;;13.56;100.00
14269;BME280;7218;51.480;7.006;2023-04-28T11:59:03;99961.56;;;13.52;100.00
14269;BME280;7218;51.480;7.006;2023-04-28T12:01:31;99959.06;;;13.72;100.00
14269;BME280;7218;51.480;7.006;2023-04-28T12:03:58;99958.38;;;13.90;100.00
14269;BME280;7218;51.480;7.006;2023-04-28T12:06:25;99956.84;;;14.73;100.00
14269;BME280;7218;51.480;7.006;2023-04-28T12:08:52;99960.78;;;14.41;100.00
14269;BME280;7218;51.480;7.006;2023-04-28T12:11:19;99958.19;;;14.40;100.00
14269;BME280;7218;51.480;7.006;2023-04-28T12:14:01;99962.97;;;14.74;100.00
14269;BME280;7218;51.480;7.006;2023-04-28T12:16:38;99962.63;;;14.39;100.00
14269;BME280;7218;51.480;7.006;2023-04-28T12:19:08;99958.25;;;14.16;100.00
14269;BME280;7218;51.480;7.006;2023-04-28T12:21:36;99955.28;;;14.47;100.00
14269;BME280;7218;51.480;7.006;2023-04-28T12:24:13;99965.28;;;14.59;100.00
14269;BME280;7218;51.480;7.006;2023-04-28T12:26:40;99966.69;;;14.68;100.00
14269;BME280;7218;51.480;7.006;2023-04-28T12:29:07;99968.59;;;14.85;100.00
14269;BME280;7218;51.480;7.006;2023-04-28T12:31:48;99963.50;;;15.22;100.00
14269;BME280;7218;51.480;7.006;2023-04-28T12:34:16;99962.13;;;14.51;100.00
14269;BME280;7218;51.480;7.006;2023-04-28T12:36:42;99954.09;;;14.96;100.00
14269;BME280;7218;51.480;7.006;2023-04-28T12:39:12;99958.66;;;15.72;100.00
14269;BME280;7218;51.480;7.006;2023-04-28T12:41:40;99956.53;;;15.80;100.00
14269;BME280;7218;51.480;7.006;2023-04-28T12:44:07;99959.16;;;15.80;100.00
14269;BME280;7218;51.480;7.006;2023-04-28T12:46:34;99950.56;;;15.96;100.00
14269;BME280;7218;51.480;7.006;2023-04-28T12:49:02;99943.97;;;15.87;100.00
14269;BME280;7218;51.480;7.006;2023-04-28T12:51:29;99946.09;;;15.79;100.00
14269;BME280;7218;51.480;7.006;2023-04-28T12:53:56;99931.13;;;17.39;100.00
14269;BME280;7218;51.480;7.006;2023-04-28T12:56:22;99920.41;;;18.83;96.41
14269;BME280;7218;51.480;7.006;2023-04-28T12:58:49;99922.44;;;20.75;81.48
14269;BME280;7218;51.480;7.006;2023-04-28T13:01:15;99934.81;;;21.64;75.51
14269;BME280;7218;51.480;7.006;2023-04-28T13:03:42;99927.91;;;22.47;71.09
14269;BME280;7218;51.480;7.006;2023-04-28T13:06:09;99927.88;;;24.19;66.05
14269;BME280;7218;51.480;7.006;2023-04-28T13:08:36;99926.63;;;21.80;71.16